Time;durP1;ratioP1;P1;durP2;ratioP2;P2;SDS_P1;SDS_P2;PMS_P1;PMS_P2;Temp;Humidity;BMP_temperature;BMP_pressure;BME280_temperature;BME280_humidity;BME280_pressure;Samples;Min_cycle;Max_cycle;Signal;HPM_P1;HPM_P2
2021/06/04 00:01:55;;;;;;;2.70;2.08;;;24.00;58.60;;;;;;10040499;28;20033;-57
2021/06/04 00:06:46;;;;;;;4.25;2.15;;;24.10;58.40;;;;;;10041279;28;20071;-57
2021/06/04 00:11:44;;;;;;;3.38;2.13;;;24.00;58.50;;;;;;10040119;28;20117;-55
2021/06/04 00:17:05;;;;;;;2.55;2.05;;;24.00;58.60;;;;;;10040807;28;20325;-57
2021/06/04 00:22:16;;;;;;;4.13;2.33;;;24.00;58.80;;;;;;10036212;28;20045;-56
2021/06/04 00:27:08;;;;;;;2.95;2.72;;;23.90;59.10;;;;;;10040479;28;20095;-58
2021/06/04 00:32:00;;;;;;;2.17;1.75;;;23.70;59.60;;;;;;10039736;28;20037;-56
2021/06/04 00:36:51;;;;;;;3.00;2.15;;;23.70;59.40;;;;;;10040623;28;20146;-55
2021/06/04 00:41:53;;;;;;;2.97;1.95;;;23.80;59.10;;;;;;10039023;28;20516;-54
2021/06/04 00:46:44;;;;;;;4.38;2.40;;;23.80;59.20;;;;;;10040165;28;20040;-55
2021/06/04 00:52:01;;;;;;;2.95;2.10;;;23.70;59.00;;;;;;10038797;28;20060;-56
2021/06/04 00:56:53;;;;;;;3.22;2.20;;;23.80;59.30;;;;;;10038573;28;20442;-58
2021/06/04 01:01:44;;;;;;;2.88;2.25;;;23.80;59.00;;;;;;10039571;28;20065;-59
2021/06/04 01:07:02;;;;;;;3.70;2.55;;;23.70;59.30;;;;;;10038993;28;20056;-56
2021/06/04 01:12:29;;;;;;;2.58;2.33;;;23.70;59.50;;;;;;10038769;28;20040;-56
2021/06/04 01:17:28;;;;;;;3.33;2.22;;;23.60;59.60;;;;;;10038808;28;20715;-56
2021/06/04 01:22:35;;;;;;;3.00;2.30;;;23.60;59.30;;;;;;10037103;28;20039;-53
2021/06/04 01:27:33;;;;;;;4.85;2.13;;;23.40;59.70;;;;;;10039077;28;20057;-56
2021/06/04 01:32:28;;;;;;;2.88;2.38;;;23.40;59.80;;;;;;10037066;28;20580;-56
2021/06/04 01:37:25;;;;;;;3.50;2.47;;;23.40;59.50;;;;;;10038135;28;20084;-55
2021/06/04 01:42:29;;;;;;;5.18;2.95;;;23.10;60.10;;;;;;10035256;28;20983;-58
2021/06/04 01:47:27;;;;;;;3.60;2.95;;;23.00;61.00;;;;;;10037892;28;20049;-54
2021/06/04 01:52:24;;;;;;;5.35;2.70;;;22.80;61.60;;;;;;10037012;28;20142;-58
2021/06/04 01:57:29;;;;;;;6.22;2.88;;;22.90;61.90;;;;;;10037614;28;20120;-55
2021/06/04 02:02:21;;;;;;;4.07;2.83;;;22.80;62.50;;;;;;10035980;28;20121;-54
2021/06/04 02:07:17;;;;;;;3.55;3.25;;;22.70;62.70;;;;;;10037794;28;20068;-56
2021/06/04 02:12:09;;;;;;;6.93;3.72;;;22.80;63.20;;;;;;10036532;28;20357;-57
2021/06/04 02:17:24;;;;;;;4.95;2.88;;;22.80;63.50;;;;;;10037612;28;20152;-53
2021/06/04 02:22:35;;;;;;;3.47;2.83;;;22.70;64.30;;;;;;10035783;28;20093;-56
2021/06/04 02:27:33;;;;;;;5.45;2.80;;;22.80;64.20;;;;;;10037584;28;20078;-55
2021/06/04 02:32:35;;;;;;;4.53;3.17;;;23.00;64.10;;;;;;10036226;28;20303;-55
2021/06/04 02:37:37;;;;;;;5.20;3.20;;;22.90;64.50;;;;;;10037181;28;20522;-54
2021/06/04 02:42:38;;;;;;;6.05;3.28;;;22.90;64.70;;;;;;10035880;28;20087;-53
2021/06/04 02:47:50;;;;;;;6.35;3.35;;;22.90;64.70;;;;;;10043472;28;20055;-56
2021/06/04 02:52:44;;;;;;;4.32;2.65;;;23.00;64.90;;;;;;10042383;28;20087;-58
2021/06/04 02:57:37;;;;;;;5.90;3.05;;;23.00;64.80;;;;;;10043389;28;20115;-57
2021/06/04 03:02:32;;;;;;;3.42;3.08;;;23.00;65.00;;;;;;10042685;28;20075;-55
2021/06/04 03:07:29;;;;;;;3.13;2.83;;;23.00;65.10;;;;;;10042995;28;20431;-55
2021/06/04 03:12:42;;;;;;;4.03;3.20;;;22.90;65.40;;;;;;10042463;28;21192;-56
2021/06/04 03:17:34;;;;;;;4.35;2.85;;;23.00;65.40;;;;;;10043253;28;20048;-56
2021/06/04 03:22:33;;;;;;;3.13;2.42;;;23.00;65.20;;;;;;10042169;28;20242;-58
2021/06/04 03:27:24;;;;;;;5.03;2.65;;;23.00;65.20;;;;;;10042791;28;20685;-53
2021/06/04 03:32:16;;;;;;;4.18;2.50;;;22.90;65.40;;;;;;10042580;28;20335;-58
2021/06/04 03:37:08;;;;;;;4.13;3.25;;;22.90;65.40;;;;;;10042238;28;20045;-57
2021/06/04 03:42:00;;;;;;;3.33;3.03;;;22.80;65.30;;;;;;10042311;28;21266;-58
2021/06/04 03:46:51;;;;;;;4.53;3.00;;;22.80;65.20;;;;;;10041512;28;20090;-57
2021/06/04 03:51:43;;;;;;;5.10;2.75;;;22.80;65.20;;;;;;10042245;28;20397;-57
2021/06/04 03:56:35;;;;;;;3.47;2.83;;;22.70;65.40;;;;;;10041060;28;21549;-56
2021/06/04 04:01:29;;;;;;;3.35;3.00;;;22.60;65.50;;;;;;10040630;28;20056;-56
2021/06/04 04:06:20;;;;;;;4.03;3.20;;;22.60;65.60;;;;;;10041596;28;20528;-57
2021/06/04 04:11:12;;;;;;;4.40;3.40;;;22.60;65.30;;;;;;10041403;28;20041;-55
2021/06/04 04:16:03;;;;;;;4.90;4.22;;;22.40;65.60;;;;;;10040295;28;20127;-57
2021/06/04 04:20:58;;;;;;;5.57;4.07;;;22.30;66.00;;;;;;10039101;28;20041;-55
2021/06/04 04:25:49;;;;;;;;;;;22.20;66.40;;;;;;10041183;28;20029;-54
2021/06/04 04:30:40;;;;;;;9.07;4.55;;;22.30;66.80;;;;;;10039565;28;19924;-54
2021/06/04 04:35:33;;;;;;;6.18;3.45;;;22.20;66.00;;;;;;10033077;28;20611;-58
2021/06/04 04:40:26;;;;;;;6.22;4.18;;;22.10;66.50;;;;;;10038115;28;20158;-58
2021/06/04 04:45:19;;;;;;;5.35;3.40;;;22.10;66.80;;;;;;10039206;28;20037;-56
2021/06/04 04:50:11;;;;;;;4.10;3.15;;;22.00;67.40;;;;;;10038955;28;20050;-56
2021/06/04 04:55:03;;;;;;;6.70;3.92;;;22.00;67.30;;;;;;10039106;28;20068;-53
2021/06/04 04:59:55;;;;;;;4.20;3.22;;;22.00;67.60;;;;;;10038615;28;20041;-54
2021/06/04 05:04:46;;;;;;;6.32;3.78;;;22.20;67.30;;;;;;10038786;28;20797;-54
2021/06/04 05:09:37;;;;;;;3.92;3.22;;;22.20;67.20;;;;;;10036457;28;20037;-55
2021/06/04 05:14:27;;;;;;;5.03;3.38;;;22.20;67.20;;;;;;10037467;28;20033;-55
2021/06/04 05:19:18;;;;;;;7.15;3.67;;;22.20;67.30;;;;;;10036912;28;20439;-55
2021/06/04 05:24:10;;;;;;;5.97;2.92;;;22.20;67.00;;;;;;10036613;28;20114;-55
2021/06/04 05:29:00;;;;;;;5.90;3.05;;;22.40;66.70;;;;;;10038262;28;20811;-56
2021/06/04 05:33:53;;;;;;;4.25;3.42;;;22.50;66.60;;;;;;10036757;28;20071;-54
2021/06/04 05:38:46;;;;;;;7.82;2.50;;;22.50;66.50;;;;;;10037715;28;20121;-55
2021/06/04 05:43:39;;;;;;;6.82;3.28;;;22.50;66.30;;;;;;10036642;28;20425;-54
2021/06/04 05:48:30;;;;;;;6.45;2.58;;;22.50;66.20;;;;;;10037254;28;20140;-55
2021/06/04 05:53:26;;;;;;;4.32;2.47;;;22.50;66.00;;;;;;10035604;28;20033;-58
2021/06/04 05:58:19;;;;;;;4.88;3.00;;;22.70;65.70;;;;;;10037105;28;20431;-57
2021/06/04 06:03:15;;;;;;;6.03;3.28;;;22.90;65.50;;;;;;10036563;28;20740;-57
2021/06/04 06:08:06;;;;;;;5.38;3.15;;;23.00;65.30;;;;;;10035334;28;20045;-56
2021/06/04 06:12:57;;;;;;;4.63;3.00;;;23.10;65.10;;;;;;10037227;28;20577;-56
2021/06/04 06:17:48;;;;;;;3.80;2.97;;;23.20;65.00;;;;;;10038128;28;20036;-57
2021/06/04 06:22:40;;;;;;;4.60;2.95;;;23.10;64.70;;;;;;10042111;28;20131;-57
2021/06/04 06:27:31;;;;;;;5.45;3.40;;;23.00;65.20;;;;;;10043504;28;20546;-59
2021/06/04 06:32:22;;;;;;;4.45;2.83;;;23.20;64.90;;;;;;10044105;28;20028;-56
2021/06/04 06:37:13;;;;;;;6.22;3.60;;;23.50;64.30;;;;;;10040918;28;20036;-56
2021/06/04 06:42:07;;;;;;;7.85;3.75;;;23.60;64.10;;;;;;10042738;28;20128;-60
2021/06/04 06:46:58;;;;;;;4.75;3.03;;;23.80;63.40;;;;;;10042926;28;20124;-58
2021/06/04 06:51:50;;;;;;;4.35;2.47;;;23.90;63.20;;;;;;10041982;28;20503;-58
2021/06/04 06:56:42;;;;;;;4.75;3.45;;;24.30;62.40;;;;;;10042663;28;20500;-56
2021/06/04 07:01:33;;;;;;;5.65;2.67;;;24.40;62.10;;;;;;10041614;28;20051;-55
2021/06/04 07:06:30;;;;;;;5.53;3.08;;;24.40;61.80;;;;;;10041901;28;20061;-55
2021/06/04 07:11:22;;;;;;;4.45;3.28;;;24.30;61.70;;;;;;10041565;28;20043;-55
2021/06/04 07:16:13;;;;;;;5.65;2.90;;;24.40;61.40;;;;;;10042186;28;20091;-56
2021/06/04 07:21:05;;;;;;;4.90;2.80;;;24.40;61.20;;;;;;10041573;28;20045;-56
2021/06/04 07:25:57;;;;;;;5.50;2.58;;;24.20;61.30;;;;;;10041553;28;20124;-57
2021/06/04 07:30:50;;;;;;;5.13;2.97;;;24.20;61.40;;;;;;10041600;28;20542;-56
2021/06/04 07:35:41;;;;;;;4.18;2.85;;;24.10;61.20;;;;;;10039943;28;20040;-56
2021/06/04 07:40:34;;;;;;;3.85;2.47;;;24.00;61.60;;;;;;10040292;28;20049;-54
2021/06/04 07:45:28;;;;;;;4.90;2.72;;;23.90;61.80;;;;;;10039768;28;20049;-57
2021/06/04 07:50:20;;;;;;;8.23;3.23;;;23.80;62.10;;;;;;10040282;28;20548;-56
2021/06/04 07:55:13;;;;;;;6.22;2.90;;;23.70;61.90;;;;;;10039024;28;20036;-58
2021/06/04 08:00:09;;;;;;;4.45;2.85;;;23.70;62.30;;;;;;10038017;28;20438;-57
2021/06/04 08:05:00;;;;;;;6.03;2.70;;;23.70;62.30;;;;;;10038646;28;20039;-60
2021/06/04 08:09:51;;;;;;;3.85;2.50;;;23.60;62.60;;;;;;10039644;28;20448;-57
2021/06/04 08:14:42;;;;;;;7.40;3.20;;;23.80;62.30;;;;;;10038901;28;20175;-55
2021/06/04 08:19:35;;;;;;;4.15;3.00;;;24.00;61.90;;;;;;10039134;28;20510;-57
2021/06/04 08:24:30;;;;;;;5.10;2.90;;;24.10;61.60;;;;;;10040520;28;20507;-58
2021/06/04 08:29:22;;;;;;;4.38;2.05;;;24.20;61.40;;;;;;10038655;28;20029;-58
2021/06/04 08:34:13;;;;;;;6.60;2.92;;;24.50;60.90;;;;;;10037370;28;20127;-56
2021/06/04 08:39:09;;;;;;;3.72;2.83;;;24.60;60.50;;;;;;10037832;28;20051;-57
2021/06/04 08:44:06;;;;;;;4.68;2.15;;;24.70;60.30;;;;;;10037649;28;20037;-55
2021/06/04 08:49:21;;;;;;;3.88;2.50;;;24.70;60.10;;;;;;10037304;28;20695;-57
2021/06/04 08:54:30;;;;;;;4.40;2.50;;;24.90;59.60;;;;;;10038324;28;20037;-58
2021/06/04 08:59:22;;;;;;;6.15;2.50;;;25.10;59.40;;;;;;10035952;28;20050;-56
2021/06/04 09:04:21;;;;;;;4.53;3.30;;;25.40;59.00;;;;;;10037554;28;20094;-56
2021/06/04 09:09:36;;;;;;;3.63;2.28;;;25.80;58.30;;;;;;10035235;28;20041;-58
2021/06/04 09:14:28;;;;;;;4.88;2.80;;;25.60;58.40;;;;;;10036908;28;20060;-56
2021/06/04 09:19:30;;;;;;;6.25;2.40;;;25.60;58.80;;;;;;10036976;28;20041;-58
2021/06/04 09:24:42;;;;;;;4.00;3.13;;;25.70;58.60;;;;;;10035896;28;20040;-59
2021/06/04 09:29:33;;;;;;;3.10;2.55;;;25.80;58.10;;;;;;10035795;28;20025;-60
2021/06/04 09:34:26;;;;;;;5.22;2.92;;;26.00;58.00;;;;;;10037628;28;20318;-59
2021/06/04 09:39:37;;;;;;;3.67;3.00;;;26.50;57.50;;;;;;10036792;28;20033;-58
2021/06/04 09:44:28;;;;;;;5.68;2.92;;;26.90;56.80;;;;;;10036440;28;20037;-57
2021/06/04 09:49:43;;;;;;;4.18;2.50;;;27.00;56.50;;;;;;10036919;28;20036;-56
2021/06/04 09:54:34;;;;;;;6.65;2.53;;;26.80;56.50;;;;;;10042512;28;20410;-55
2021/06/04 09:59:24;;;;;;;5.32;2.47;;;26.70;56.40;;;;;;10044039;28;20511;-56
2021/06/04 10:04:27;;;;;;;2.70;2.17;;;26.90;56.00;;;;;;10044599;28;20405;-57
2021/06/04 10:09:27;;;;;;;3.97;2.25;;;27.10;55.00;;;;;;10038634;28;20055;-58
2021/06/04 10:14:38;;;;;;;5.90;2.50;;;27.20;54.20;;;;;;10042703;28;20055;-59
2021/06/04 10:19:40;;;;;;;2.65;2.00;;;27.60;53.70;;;;;;10042252;28;20053;-55
2021/06/04 10:24:36;;;;;;;5.30;3.17;;;27.70;53.20;;;;;;10043966;28;20425;-58
2021/06/04 10:29:29;;;;;;;5.82;2.17;;;28.00;52.20;;;;;;10045371;28;20422;-59
2021/06/04 10:35:03;;;;;;;2.92;2.38;;;28.00;51.50;;;;;;10043744;28;20039;-56
2021/06/04 10:40:06;;;;;;;3.20;2.27;;;28.10;50.40;;;;;;10041606;28;20475;-61
2021/06/04 10:45:17;;;;;;;4.67;2.90;;;28.40;50.40;;;;;;10041716;28;20035;-58
2021/06/04 10:50:32;;;;;;;2.80;2.50;;;28.60;49.80;;;;;;10042986;28;20247;-58
2021/06/04 10:55:31;;;;;;;6.38;3.10;;;28.60;48.50;;;;;;10041607;28;20072;-59
2021/06/04 11:00:26;;;;;;;3.58;2.47;;;28.30;50.10;;;;;;10041115;28;20252;-58
2021/06/04 11:05:32;;;;;;;3.10;2.65;;;28.40;50.10;;;;;;10040220;28;20156;-58
2021/06/04 11:10:53;;;;;;;4.85;2.58;;;28.90;49.50;;;;;;10041278;28;20079;-59
2021/06/04 11:16:04;;;;;;;4.38;2.97;;;28.90;49.50;;;;;;10040113;28;20082;-58
2021/06/04 11:20:56;;;;;;;4.18;2.53;;;28.60;49.60;;;;;;10040617;28;20352;-61
2021/06/04 11:26:11;;;;;;;3.03;2.30;;;28.60;49.40;;;;;;10042875;28;20825;-57
2021/06/04 11:31:06;;;;;;;3.20;2.45;;;28.30;49.10;;;;;;10042240;28;20341;-57
2021/06/04 11:36:20;;;;;;;3.35;2.35;;;28.20;49.40;;;;;;10041595;28;20421;-59
2021/06/04 11:41:20;;;;;;;5.95;2.45;;;28.10;48.70;;;;;;10038745;28;20037;-58
2021/06/04 11:46:27;;;;;;;3.05;2.05;;;27.80;49.80;;;;;;10041815;28;20033;-58
2021/06/04 11:51:18;;;;;;;5.05;3.10;;;27.40;51.10;;;;;;10039768;28;20029;-58
2021/06/04 11:56:37;;;;;;;3.33;2.63;;;27.90;51.00;;;;;;10041559;28;20037;-58
2021/06/04 12:01:39;;;;;;;4.63;2.88;;;28.30;50.40;;;;;;10040330;28;20519;-58
2021/06/04 12:06:42;;;;;;;3.97;2.67;;;28.80;49.90;;;;;;10041007;28;20485;-58
2021/06/04 12:11:34;;;;;;;3.13;2.80;;;28.70;49.70;;;;;;10038436;28;20865;-58
2021/06/04 12:16:26;;;;;;;4.30;2.67;;;29.30;49.80;;;;;;10040450;28;20403;-58
2021/06/04 12:21:41;;;;;;;3.75;2.53;;;30.30;49.00;;;;;;10036651;28;20111;-59
2021/06/04 12:26:48;;;;;;;5.03;3.08;;;30.90;48.40;;;;;;10029628;28;20260;-58
2021/06/04 12:31:53;;;;;;;3.30;2.42;;;30.30;48.50;;;;;;10038752;28;20063;-56
2021/06/04 12:36:43;;;;;;;3.65;2.38;;;30.00;48.80;;;;;;10039235;28;20343;-56
2021/06/04 12:41:34;;;;;;;4.00;3.22;;;31.00;48.30;;;;;;10038157;28;20045;-58
2021/06/04 12:46:25;;;;;;;3.97;2.17;;;31.90;47.40;;;;;;10039549;28;20067;-61
2021/06/04 12:51:18;;;;;;;6.40;2.38;;;32.20;46.10;;;;;;10037925;28;20039;-58
2021/06/04 12:56:17;;;;;;;2.90;2.20;;;32.60;45.00;;;;;;10038553;28;20471;-60
2021/06/04 13:01:17;;;;;;;4.53;2.50;;;33.80;43.60;;;;;;10037549;28;20093;-58
2021/06/04 13:06:20;;;;;;;4.30;2.17;;;35.10;41.90;;;;;;10037392;28;20135;-58
2021/06/04 13:11:11;;;;;;;3.30;2.22;;;36.00;40.50;;;;;;10038234;28;20044;-58
2021/06/04 13:16:20;;;;;;;2.38;2.10;;;36.90;39.50;;;;;;10037046;28;20037;-59
2021/06/04 13:21:15;;;;;;;3.30;2.10;;;37.10;35.30;;;;;;10036119;28;20052;-58
2021/06/04 13:26:25;;;;;;;2.65;2.03;;;36.70;37.60;;;;;;10035759;28;20040;-58
2021/06/04 13:31:24;;;;;;;4.28;2.15;;;36.80;37.00;;;;;;10036156;28;20060;-59
2021/06/04 13:36:18;;;;;;;5.88;2.60;;;36.40;36.20;;;;;;10036810;28;20095;-60
2021/06/04 13:41:33;;;;;;;2.85;2.20;;;35.60;36.70;;;;;;10035709;28;20072;-58
2021/06/04 13:46:38;;;;;;;4.82;3.15;;;36.40;35.90;;;;;;10037058;28;20059;-57
2021/06/04 13:51:52;;;;;;;3.60;2.55;;;38.80;33.80;;;;;;10035988;28;20049;-58
2021/06/04 13:56:43;;;;;;;3.30;2.28;;;39.30;32.30;;;;;;10036459;28;20041;-58
2021/06/04 14:01:48;;;;;;;2.63;2.20;;;38.70;32.10;;;;;;10036508;28;20041;-57
2021/06/04 14:06:51;;;;;;;2.88;1.95;;;37.10;32.00;;;;;;10035975;28;21279;-59
2021/06/04 14:11:57;;;;;;;2.70;1.88;;;35.10;34.20;;;;;;10036019;28;21582;-60
2021/06/04 14:16:49;;;;;;;2.55;1.95;;;35.90;33.30;;;;;;10035922;28;20061;-58
2021/06/04 14:21:46;;;;;;;3.80;2.30;;;35.00;34.20;;;;;;10034119;28;20041;-59
2021/06/04 14:26:40;;;;;;;4.03;2.50;;;36.00;33.40;;;;;;10035337;28;20029;-59
2021/06/04 14:31:31;;;;;;;3.38;2.15;;;37.90;31.50;;;;;;10036657;28;20056;-58
2021/06/04 14:36:26;;;;;;;;;;;37.60;31.50;;;;;;10035467;28;20040;-59
2021/06/04 14:41:20;;;;;;;3.67;2.13;;;37.90;29.90;;;;;;10041400;28;19962;-58
2021/06/04 14:46:25;;;;;;;4.65;2.10;;;37.00;32.10;;;;;;10041977;28;20376;-58
2021/06/04 14:51:16;;;;;;;4.28;2.75;;;38.00;30.60;;;;;;10043424;28;20587;-58
2021/06/04 14:56:10;;;;;;;3.67;1.83;;;39.20;29.90;;;;;;10040477;28;20036;-58
2021/06/04 15:01:01;;;;;;;2.65;1.80;;;38.70;30.20;;;;;;10041699;28;20263;-59
2021/06/04 15:05:52;;;;;;;3.42;1.80;;;38.60;29.50;;;;;;10040570;28;20045;-58
2021/06/04 15:10:43;;;;;;;2.80;1.83;;;38.50;29.60;;;;;;10042526;28;20055;-59
2021/06/04 15:15:35;;;;;;;4.28;2.20;;;39.50;29.00;;;;;;10041464;28;20040;-58
2021/06/04 15:20:28;;;;;;;2.65;1.95;;;39.40;29.00;;;;;;10039342;28;20171;-56
2021/06/04 15:25:20;;;;;;;2.60;1.88;;;39.60;29.00;;;;;;10041423;28;20616;-57
2021/06/04 15:30:12;;;;;;;2.35;2.10;;;39.60;28.90;;;;;;10040847;28;20703;-58
2021/06/04 15:35:05;;;;;;;3.88;2.30;;;40.60;28.50;;;;;;10034203;28;20061;-58
2021/06/04 15:39:55;;;;;;;2.63;2.35;;;40.50;28.20;;;;;;10033332;28;21559;-58
2021/06/04 15:44:47;;;;;;;3.95;1.88;;;40.10;28.40;;;;;;10037941;28;20029;-58
2021/06/04 15:49:38;;;;;;;3.05;1.92;;;39.60;28.70;;;;;;10037379;28;20047;-59
2021/06/04 15:54:29;;;;;;;2.85;2.17;;;39.60;28.70;;;;;;10039475;28;20096;-58
2021/06/04 15:59:20;;;;;;;;;;;39.20;28.50;;;;;;10039081;28;20027;-57
2021/06/04 16:04:13;;;;;;;4.78;2.22;;;36.70;30.10;;;;;;10040112;28;19917;-59
2021/06/04 16:09:08;;;;;;;4.15;2.53;;;34.20;32.30;;;;;;10041106;28;20553;-58
2021/06/04 16:13:59;;;;;;;3.95;2.72;;;32.90;33.20;;;;;;10039123;28;20029;-58
2021/06/04 16:18:49;;;;;;;2.53;2.03;;;32.20;33.60;;;;;;10040058;28;20132;-58
2021/06/04 16:23:41;;;;;;;2.90;1.90;;;31.80;33.90;;;;;;10038260;28;20032;-57
2021/06/04 16:28:32;;;;;;;2.85;2.55;;;31.50;34.20;;;;;;10037364;28;20043;-61
2021/06/04 16:33:25;;;;;;;4.43;2.10;;;31.10;34.80;;;;;;10037894;28;20032;-58
2021/06/04 16:38:16;;;;;;;2.85;2.08;;;31.20;35.20;;;;;;10038651;28;20116;-58
2021/06/04 16:43:08;;;;;;;4.28;2.30;;;31.40;34.80;;;;;;10032228;28;20099;-57
2021/06/04 16:47:59;;;;;;;2.53;2.05;;;31.70;34.60;;;;;;10036014;28;20206;-58
2021/06/04 16:52:50;;;;;;;7.13;3.05;;;32.40;34.30;;;;;;10036194;28;20809;-58
2021/06/04 16:57:42;;;;;;;4.63;2.67;;;33.20;33.80;;;;;;10036156;28;20033;-58
2021/06/04 17:02:33;;;;;;;2.57;2.13;;;35.70;32.00;;;;;;10040037;28;20097;-58
2021/06/04 17:07:24;;;;;;;4.95;2.58;;;38.70;29.70;;;;;;10037655;28;21433;-58
2021/06/04 17:12:15;;;;;;;6.07;2.43;;;39.80;28.90;;;;;;10040072;28;20140;-58
2021/06/04 17:17:06;;;;;;;3.75;2.10;;;40.20;28.70;;;;;;10036703;28;20040;-58
2021/06/04 17:21:57;;;;;;;3.50;2.42;;;40.30;28.60;;;;;;10038871;28;20431;-58
2021/06/04 17:26:47;;;;;;;4.38;2.20;;;39.50;28.90;;;;;;10038518;28;20550;-59
2021/06/04 17:31:39;;;;;;;2.13;1.93;;;39.10;28.90;;;;;;10038432;28;20040;-58
2021/06/04 17:36:30;;;;;;;2.95;1.70;;;36.90;30.10;;;;;;10038731;28;20041;-57
2021/06/04 17:41:22;;;;;;;2.30;1.98;;;33.80;33.10;;;;;;10037986;28;20060;-58
2021/06/04 17:46:13;;;;;;;2.75;2.40;;;33.50;33.40;;;;;;10035317;28;20526;-58
2021/06/04 17:51:04;;;;;;;3.70;2.28;;;33.50;33.20;;;;;;10037281;28;20488;-58
2021/06/04 17:55:56;;;;;;;4.32;2.15;;;32.20;34.10;;;;;;10036435;28;20065;-58
2021/06/04 18:00:47;;;;;;;3.13;2.72;;;31.10;35.40;;;;;;10034481;28;20035;-57
2021/06/04 18:05:43;;;;;;;3.50;2.00;;;30.40;36.10;;;;;;10037480;28;20045;-57
2021/06/04 18:10:33;;;;;;;2.90;2.00;;;30.20;36.30;;;;;;10037718;28;20789;-57
2021/06/04 18:15:30;;;;;;;5.80;2.05;;;30.20;36.50;;;;;;10040984;28;20024;-58
2021/06/04 18:20:21;;;;;;;4.47;2.10;;;29.90;37.00;;;;;;10043137;28;20039;-57
2021/06/04 18:25:15;;;;;;;4.13;2.03;;;29.50;37.30;;;;;;10044313;28;20190;-58
2021/06/04 18:30:07;;;;;;;2.72;2.05;;;29.30;37.90;;;;;;10044808;28;20090;-59
2021/06/04 18:35:01;;;;;;;2.40;1.90;;;29.20;37.70;;;;;;10042073;28;20507;-57
2021/06/04 18:39:53;;;;;;;3.67;3.07;;;29.10;38.20;;;;;;10043690;28;20067;-58
2021/06/04 18:44:44;;;;;;;3.92;1.70;;;29.10;38.40;;;;;;10043009;28;20630;-58
2021/06/04 18:49:36;;;;;;;5.90;2.00;;;29.10;38.50;;;;;;10042472;28;20044;-59
2021/06/04 18:54:27;;;;;;;3.05;1.95;;;28.10;40.90;;;;;;10043048;28;20463;-58
2021/06/04 18:59:17;;;;;;;2.90;1.38;;;27.50;42.60;;;;;;10043766;28;20854;-58
2021/06/04 19:04:09;;;;;;;1.45;1.33;;;26.60;43.10;;;;;;10044321;28;20032;-58
2021/06/04 19:09:00;;;;;;;3.45;1.70;;;25.00;46.70;;;;;;10041997;28;20592;-59
2021/06/04 19:13:52;;;;;;;6.50;2.28;;;24.70;47.50;;;;;;10043317;28;20061;-59
2021/06/04 19:18:42;;;;;;;4.60;2.05;;;25.00;48.50;;;;;;10041883;28;20395;-58
2021/06/04 19:23:34;;;;;;;6.70;2.70;;;25.20;49.00;;;;;;10040068;28;20276;-59
2021/06/04 19:28:25;;;;;;;2.80;2.15;;;24.90;50.70;;;;;;10040263;28;20049;-58
2021/06/04 19:33:20;;;;;;;4.75;2.05;;;24.80;52.50;;;;;;10040083;28;20036;-59
2021/06/04 19:38:17;;;;;;;4.18;2.10;;;24.90;53.50;;;;;;10041368;28;20079;-59
2021/06/04 19:43:08;;;;;;;6.32;2.40;;;24.70;55.00;;;;;;10039954;28;21182;-58
2021/06/04 19:47:59;;;;;;;5.70;1.95;;;24.60;55.70;;;;;;10041446;28;20585;-58
2021/06/04 19:52:52;;;;;;;4.80;2.22;;;24.40;56.30;;;;;;10037963;28;20037;-58
2021/06/04 19:57:43;;;;;;;5.82;2.67;;;24.50;56.50;;;;;;10040482;28;20041;-60
2021/06/04 20:02:34;;;;;;;4.43;1.55;;;24.30;57.30;;;;;;10041321;28;20624;-58
2021/06/04 20:07:24;;;;;;;3.58;2.08;;;24.30;57.40;;;;;;10038287;28;20385;-59
2021/06/04 20:12:15;;;;;;;4.13;2.70;;;24.10;57.60;;;;;;10040825;28;20628;-62
2021/06/04 20:17:06;;;;;;;4.82;2.25;;;24.10;57.70;;;;;;10042103;28;20731;-64
2021/06/04 20:21:57;;;;;;;5.13;2.63;;;24.10;57.80;;;;;;10040396;28;21002;-62
2021/06/04 20:26:48;;;;;;;4.78;2.08;;;24.00;59.00;;;;;;10042565;28;20249;-61
2021/06/04 20:31:40;;;;;;;3.38;2.22;;;24.10;58.70;;;;;;10043100;28;20495;-60
2021/06/04 20:36:32;;;;;;;3.60;2.47;;;23.90;59.00;;;;;;10042507;28;20040;-69
2021/06/04 20:41:25;;;;;;;3.45;2.10;;;23.70;59.50;;;;;;10040608;28;20033;-61
2021/06/04 20:46:17;;;;;;;5.47;2.45;;;23.80;59.70;;;;;;10039947;28;20036;-63
2021/06/04 20:51:13;;;;;;;2.90;2.20;;;23.70;59.80;;;;;;10042610;28;20423;-64
2021/06/04 20:56:03;;;;;;;5.13;2.55;;;24.10;59.20;;;;;;10038639;28;20110;-61
2021/06/04 21:00:55;;;;;;;3.95;2.40;;;24.10;59.30;;;;;;10041634;28;20518;-67
2021/06/04 21:05:47;;;;;;;4.15;2.20;;;24.30;59.30;;;;;;10040865;28;20127;-65
2021/06/04 21:10:39;;;;;;;4.78;2.00;;;24.50;59.00;;;;;;10038901;28;20787;-61
2021/06/04 21:15:35;;;;;;;4.63;1.55;;;24.10;60.00;;;;;;10041625;28;20553;-62
2021/06/04 21:20:28;;;;;;;2.17;1.60;;;24.00;60.20;;;;;;10039694;28;20043;-62
2021/06/04 21:25:23;;;;;;;1.70;1.33;;;24.20;59.30;;;;;;10041383;28;20419;-60
2021/06/04 21:30:16;;;;;;;4.47;1.75;;;24.40;58.50;;;;;;10039912;28;20526;-61
2021/06/04 21:35:10;;;;;;;4.57;1.35;;;24.20;58.60;;;;;;10039671;28;20867;-61
2021/06/04 21:40:00;;;;;;;3.45;1.30;;;24.10;58.50;;;;;;10037655;28;20419;-63
2021/06/04 21:44:51;;;;;;;2.88;1.25;;;23.90;58.70;;;;;;10038824;28;20036;-62
2021/06/04 21:49:42;;;;;;;1.70;1.15;;;23.60;59.20;;;;;;10041343;28;20535;-64
2021/06/04 21:54:34;;;;;;;2.60;1.20;;;23.50;59.00;;;;;;10046894;28;20499;-62
2021/06/04 21:59:27;;;;;;;2.80;1.15;;;23.50;59.10;;;;;;10046290;28;20191;-60
2021/06/04 22:04:18;;;;;;;5.25;1.30;;;23.30;59.00;;;;;;10045722;28;20447;-64
2021/06/04 22:09:12;;;;;;;2.70;1.30;;;23.20;59.10;;;;;;10043899;28;20068;-60
2021/06/04 22:14:04;;;;;;;5.75;1.40;;;23.10;59.60;;;;;;10044616;28;20307;-62
2021/06/04 22:18:55;;;;;;;5.28;1.17;;;23.00;59.80;;;;;;10046059;28;20136;-60
2021/06/04 22:23:46;;;;;;;2.80;1.30;;;23.00;60.20;;;;;;10043016;28;20132;-65
2021/06/04 22:28:43;;;;;;;2.92;1.40;;;22.90;60.40;;;;;;10045752;28;20191;-59
2021/06/04 22:33:37;;;;;;;2.35;1.20;;;22.70;61.50;;;;;;10044902;28;20314;-65
2021/06/04 22:38:28;;;;;;;3.50;1.17;;;22.60;61.90;;;;;;10044455;28;20025;-60
2021/06/04 22:43:20;;;;;;;5.25;1.55;;;22.30;62.30;;;;;;10043963;28;21129;-62
2021/06/04 22:48:11;;;;;;;2.08;1.30;;;22.10;63.30;;;;;;10044325;28;20055;-61
2021/06/04 22:53:08;;;;;;;3.65;0.90;;;22.20;63.40;;;;;;10043319;28;20542;-60
2021/06/04 22:57:59;;;;;;;2.28;1.40;;;22.10;63.70;;;;;;10043316;28;20040;-61
2021/06/04 23:02:50;;;;;;;5.45;1.20;;;21.90;64.20;;;;;;10044140;28;20139;-59
2021/06/04 23:07:41;;;;;;;2.40;0.93;;;21.80;64.60;;;;;;10043507;28;20511;-60
2021/06/04 23:12:31;;;;;;;4.60;1.30;;;21.70;65.20;;;;;;10041409;28;20040;-60
2021/06/04 23:17:22;;;;;;;2.13;1.25;;;21.60;65.60;;;;;;10043588;28;20057;-63
2021/06/04 23:22:13;;;;;;;2.80;1.27;;;21.80;65.30;;;;;;10042592;28;20099;-61
2021/06/04 23:27:04;;;;;;;2.67;0.98;;;21.80;65.20;;;;;;10041119;28;20036;-60
2021/06/04 23:31:54;;;;;;;1.45;1.23;;;22.00;65.20;;;;;;10041400;28;20083;-60
2021/06/04 23:36:45;;;;;;;2.70;1.33;;;22.10;65.10;;;;;;10043899;28;20029;-61
2021/06/04 23:41:36;;;;;;;2.58;1.00;;;21.90;65.30;;;;;;10040690;28;20021;-60
2021/06/04 23:46:31;;;;;;;3.78;2.22;;;21.50;66.60;;;;;;10042678;28;20123;-59
2021/06/04 23:51:23;;;;;;;3.55;1.23;;;21.20;67.50;;;;;;10040953;28;20037;-60
2021/06/04 23:56:15;;;;;;;4.45;1.60;;;21.10;67.80;;;;;;10040334;28;20045;-60
